sensor_id;sensor_type;location;lat;lon;timestamp;temperature;humidity
11280;DHT22;5696;50.928;6.960;2022-11-18T06:04:51;9.70;99.90
11280;DHT22;5696;50.928;6.960;2022-11-18T06:07:21;9.60;99.90
11280;DHT22;5696;50.928;6.960;2022-11-18T06:09:49;9.60;99.90
11280;DHT22;5696;50.928;6.960;2022-11-18T06:12:20;9.60;99.90
11280;DHT22;5696;50.928;6.960;2022-11-18T06:14:52;9.60;99.90
11280;DHT22;5696;50.928;6.960;2022-11-18T06:17:26;9.60;99.90
11280;DHT22;5696;50.928;6.960;2022-11-18T06:19:53;9.50;99.90
11280;DHT22;5696;50.928;6.960;2022-11-18T06:22:19;9.60;99.90
11280;DHT22;5696;50.928;6.960;2022-11-18T06:24:45;9.60;99.90
11280;DHT22;5696;50.928;6.960;2022-11-18T06:27:11;9.70;99.90
11280;DHT22;5696;50.928;6.960;2022-11-18T06:29:38;9.70;99.90
11280;DHT22;5696;50.928;6.960;2022-11-18T06:32:04;9.70;99.90
11280;DHT22;5696;50.928;6.960;2022-11-18T06:34:29;9.80;99.90
11280;DHT22;5696;50.928;6.960;2022-11-18T06:36:55;9.90;99.90
11280;DHT22;5696;50.928;6.960;2022-11-18T06:39:21;9.90;99.90
11280;DHT22;5696;50.928;6.960;2022-11-18T06:41:46;9.90;99.90
11280;DHT22;5696;50.928;6.960;2022-11-18T06:44:12;9.90;99.90
11280;DHT22;5696;50.928;6.960;2022-11-18T06:46:38;9.90;99.90
11280;DHT22;5696;50.928;6.960;2022-11-18T06:49:24;9.90;99.90
11280;DHT22;5696;50.928;6.960;2022-11-18T06:51:50;9.90;99.90
11280;DHT22;5696;50.928;6.960;2022-11-18T06:54:15;9.90;99.90
11280;DHT22;5696;50.928;6.960;2022-11-18T06:56:41;9.90;99.90
11280;DHT22;5696;50.928;6.960;2022-11-18T06:59:07;9.90;99.90
11280;DHT22;5696;50.928;6.960;2022-11-18T07:01:38;10.00;99.90
11280;DHT22;5696;50.928;6.960;2022-11-18T07:04:04;9.90;99.90
11280;DHT22;5696;50.928;6.960;2022-11-18T07:06:32;9.90;99.90
11280;DHT22;5696;50.928;6.960;2022-11-18T07:09:00;10.00;99.90
11280;DHT22;5696;50.928;6.960;2022-11-18T07:11:27;10.00;99.90
11280;DHT22;5696;50.928;6.960;2022-11-18T07:13:52;10.00;99.90
11280;DHT22;5696;50.928;6.960;2022-11-18T07:16:25;10.00;99.90
11280;DHT22;5696;50.928;6.960;2022-11-18T07:18:52;10.00;99.90
11280;DHT22;5696;50.928;6.960;2022-11-18T07:21:28;10.00;99.90
11280;DHT22;5696;50.928;6.960;2022-11-18T07:23:55;10.00;99.90
11280;DHT22;5696;50.928;6.960;2022-11-18T07:26:21;10.00;99.90
11280;DHT22;5696;50.928;6.960;2022-11-18T07:28:46;10.00;99.90
11280;DHT22;5696;50.928;6.960;2022-11-18T07:31:14;10.00;99.90
11280;DHT22;5696;50.928;6.960;2022-11-18T07:33:41;10.00;99.90
11280;DHT22;5696;50.928;6.960;2022-11-18T07:36:09;10.00;99.90
11280;DHT22;5696;50.928;6.960;2022-11-18T07:38:35;10.10;99.90
11280;DHT22;5696;50.928;6.960;2022-11-18T07:41:03;10.10;99.90
11280;DHT22;5696;50.928;6.960;2022-11-18T07:43:30;10.20;99.90
11280;DHT22;5696;50.928;6.960;2022-11-18T07:45:56;10.30;99.90
11280;DHT22;5696;50.928;6.960;2022-11-18T07:48:22;10.30;99.90
11280;DHT22;5696;50.928;6.960;2022-11-18T07:50:47;10.30;99.90
11280;DHT22;5696;50.928;6.960;2022-11-18T07:53:13;10.40;99.90
11280;DHT22;5696;50.928;6.960;2022-11-18T07:55:38;10.40;99.90
11280;DHT22;5696;50.928;6.960;2022-11-18T07:58:04;10.40;99.90
11280;DHT22;5696;50.928;6.960;2022-11-18T08:00:30;10.40;99.90
11280;DHT22;5696;50.928;6.960;2022-11-18T08:02:55;10.40;99.90
11280;DHT22;5696;50.928;6.960;2022-11-18T08:05:21;10.50;99.90
11280;DHT22;5696;50.928;6.960;2022-11-18T08:07:46;10.50;99.90
11280;DHT22;5696;50.928;6.960;2022-11-18T08:10:12;10.60;99.90
11280;DHT22;5696;50.928;6.960;2022-11-18T08:12:38;10.60;99.90
11280;DHT22;5696;50.928;6.960;2022-11-18T08:15:03;10.70;99.90
11280;DHT22;5696;50.928;6.960;2022-11-18T08:17:29;10.70;99.90
11280;DHT22;5696;50.928;6.960;2022-11-18T08:19:56;10.80;99.90
11280;DHT22;5696;50.928;6.960;2022-11-18T08:22:22;10.80;99.90
11280;DHT22;5696;50.928;6.960;2022-11-18T08:24:48;10.90;99.90
11280;DHT22;5696;50.928;6.960;2022-11-18T08:27:13;11.10;99.90
11280;DHT22;5696;50.928;6.960;2022-11-18T08:29:40;11.10;99.90
11280;DHT22;5696;50.928;6.960;2022-11-18T08:32:05;11.30;99.90
11280;DHT22;5696;50.928;6.960;2022-11-18T08:34:31;11.30;99.90
11280;DHT22;5696;50.928;6.960;2022-11-18T08:36:57;11.40;99.90
11280;DHT22;5696;50.928;6.960;2022-11-18T08:39:22;11.30;99.90
11280;DHT22;5696;50.928;6.960;2022-11-18T08:41:48;11.40;99.90
11280;DHT22;5696;50.928;6.960;2022-11-18T08:44:15;11.40;99.90
11280;DHT22;5696;50.928;6.960;2022-11-18T08:46:41;11.40;99.90
11280;DHT22;5696;50.928;6.960;2022-11-18T08:49:07;11.40;99.90
11280;DHT22;5696;50.928;6.960;2022-11-18T08:51:33;11.40;99.90
11280;DHT22;5696;50.928;6.960;2022-11-18T08:53:58;11.40;99.90
11280;DHT22;5696;50.928;6.960;2022-11-18T08:56:24;11.40;99.90
11280;DHT22;5696;50.928;6.960;2022-11-18T08:58:50;11.40;99.90
11280;DHT22;5696;50.928;6.960;2022-11-18T09:01:16;11.40;99.90
11280;DHT22;5696;50.928;6.960;2022-11-18T09:03:42;11.30;99.90
11280;DHT22;5696;50.928;6.960;2022-11-18T09:06:19;11.30;99.90
11280;DHT22;5696;50.928;6.960;2022-11-18T09:08:45;11.30;99.90
11280;DHT22;5696;50.928;6.960;2022-11-18T09:11:13;11.40;99.90
11280;DHT22;5696;50.928;6.960;2022-11-18T09:13:40;11.30;99.90
11280;DHT22;5696;50.928;6.960;2022-11-18T09:16:06;11.40;99.90
11280;DHT22;5696;50.928;6.960;2022-11-18T09:18:32;11.40;99.90
11280;DHT22;5696;50.928;6.960;2022-11-18T09:21:02;11.50;99.90
11280;DHT22;5696;50.928;6.960;2022-11-18T09:23:29;11.50;99.90
11280;DHT22;5696;50.928;6.960;2022-11-18T09:26:09;11.50;99.90
11280;DHT22;5696;50.928;6.960;2022-11-18T09:28:35;11.50;99.90
11280;DHT22;5696;50.928;6.960;2022-11-18T09:31:06;11.50;99.90
11280;DHT22;5696;50.928;6.960;2022-11-18T09:33:33;11.50;99.90
11280;DHT22;5696;50.928;6.960;2022-11-18T09:35:59;11.40;99.90
11280;DHT22;5696;50.928;6.960;2022-11-18T09:38:24;11.50;99.90
11280;DHT22;5696;50.928;6.960;2022-11-18T09:49:38;11.80;99.90
11280;DHT22;5696;50.928;6.960;2022-11-18T09:52:12;11.80;99.90
11280;DHT22;5696;50.928;6.960;2022-11-18T09:54:40;11.90;99.90
11280;DHT22;5696;50.928;6.960;2022-11-18T09:57:18;12.10;99.90
11280;DHT22;5696;50.928;6.960;2022-11-18T09:59:44;12.30;99.90
11280;DHT22;5696;50.928;6.960;2022-11-18T10:04:52;12.50;99.90
11280;DHT22;5696;50.928;6.960;2022-11-18T10:07:33;12.50;99.90
11280;DHT22;5696;50.928;6.960;2022-11-18T10:10:02;12.60;99.90
11280;DHT22;5696;50.928;6.960;2022-11-18T10:12:43;12.70;99.90
11280;DHT22;5696;50.928;6.960;2022-11-18T10:15:25;12.70;99.90
11280;DHT22;5696;50.928;6.960;2022-11-18T10:18:19;12.80;99.90
11280;DHT22;5696;50.928;6.960;2022-11-18T10:23:25;13.10;99.90
11280;DHT22;5696;50.928;6.960;2022-11-18T10:25:53;13.40;99.90
11280;DHT22;5696;50.928;6.960;2022-11-18T10:28:24;13.50;99.90
11280;DHT22;5696;50.928;6.960;2022-11-18T10:30:51;13.80;99.90
11280;DHT22;5696;50.928;6.960;2022-11-18T10:33:27;14.00;99.90
11280;DHT22;5696;50.928;6.960;2022-11-18T10:38:33;13.80;99.90
11280;DHT22;5696;50.928;6.960;2022-11-18T10:41:01;13.50;99.90
11280;DHT22;5696;50.928;6.960;2022-11-18T10:48:42;13.60;99.90
11280;DHT22;5696;50.928;6.960;2022-11-18T10:51:23;13.50;99.90
11280;DHT22;5696;50.928;6.960;2022-11-18T10:53:49;13.60;99.90
11280;DHT22;5696;50.928;6.960;2022-11-18T10:56:16;13.60;99.90
11280;DHT22;5696;50.928;6.960;2022-11-18T10:58:46;13.50;99.90
11280;DHT22;5696;50.928;6.960;2022-11-18T11:01:19;13.40;99.90
11280;DHT22;5696;50.928;6.960;2022-11-18T11:06:35;13.50;99.90
11280;DHT22;5696;50.928;6.960;2022-11-18T11:11:39;13.40;99.90
11280;DHT22;5696;50.928;6.960;2022-11-18T11:17:08;13.30;99.90
11280;DHT22;5696;50.928;6.960;2022-11-18T11:22:09;13.10;99.90
11280;DHT22;5696;50.928;6.960;2022-11-18T11:24:35;13.10;99.90
11280;DHT22;5696;50.928;6.960;2022-11-18T11:30:04;13.10;99.90
11280;DHT22;5696;50.928;6.960;2022-11-18T11:33:30;13.40;99.90
11280;DHT22;5696;50.928;6.960;2022-11-18T11:35:46;13.60;99.90
11280;DHT22;5696;50.928;6.960;2022-11-18T11:38:42;13.50;99.90
11280;DHT22;5696;50.928;6.960;2022-11-18T11:46:34;13.30;99.90
11280;DHT22;5696;50.928;6.960;2022-11-18T11:49:18;13.30;99.90
11280;DHT22;5696;50.928;6.960;2022-11-18T11:51:57;13.40;99.90
11280;DHT22;5696;50.928;6.960;2022-11-18T12:00:11;13.40;99.90
11280;DHT22;5696;50.928;6.960;2022-11-18T12:05:34;13.50;99.90
11280;DHT22;5696;50.928;6.960;2022-11-18T12:08:03;13.50;99.90
11280;DHT22;5696;50.928;6.960;2022-11-18T12:10:56;13.40;99.90
11280;DHT22;5696;50.928;6.960;2022-11-18T12:21:03;14.10;99.90
11280;DHT22;5696;50.928;6.960;2022-11-18T12:23:30;14.30;99.90
11280;DHT22;5696;50.928;6.960;2022-11-18T12:26:04;14.20;99.90
11280;DHT22;5696;50.928;6.960;2022-11-18T12:28:41;14.30;99.90
11280;DHT22;5696;50.928;6.960;2022-11-18T12:36:37;14.30;99.90
11280;DHT22;5696;50.928;6.960;2022-11-18T12:42:00;14.20;99.90
11280;DHT22;5696;50.928;6.960;2022-11-18T12:44:49;14.20;99.90
11280;DHT22;5696;50.928;6.960;2022-11-18T12:47:57;14.20;99.90
11280;DHT22;5696;50.928;6.960;2022-11-18T12:50:46;14.20;99.90
11280;DHT22;5696;50.928;6.960;2022-11-18T12:53:35;14.10;99.90
11280;DHT22;5696;50.928;6.960;2022-11-18T12:56:20;14.40;99.90
11280;DHT22;5696;50.928;6.960;2022-11-18T12:58:54;14.30;99.90
11280;DHT22;5696;50.928;6.960;2022-11-18T13:01:23;14.50;99.90
11280;DHT22;5696;50.928;6.960;2022-11-18T13:03:50;14.40;99.90
11280;DHT22;5696;50.928;6.960;2022-11-18T13:06:22;14.50;99.90
11280;DHT22;5696;50.928;6.960;2022-11-18T13:08:54;14.40;99.90
11280;DHT22;5696;50.928;6.960;2022-11-18T13:11:21;14.10;99.90
11280;DHT22;5696;50.928;6.960;2022-11-18T13:14:14;14.20;99.90
11280;DHT22;5696;50.928;6.960;2022-11-18T13:16:58;14.10;99.90
11280;DHT22;5696;50.928;6.960;2022-11-18T13:19:53;14.10;99.90
11280;DHT22;5696;50.928;6.960;2022-11-18T13:22:20;14.20;99.90
11280;DHT22;5696;50.928;6.960;2022-11-18T13:25:19;14.10;99.90
11280;DHT22;5696;50.928;6.960;2022-11-18T13:27:57;14.00;99.90
11280;DHT22;5696;50.928;6.960;2022-11-18T13:30:26;13.80;99.90
11280;DHT22;5696;50.928;6.960;2022-11-18T13:32:53;13.90;99.90
11280;DHT22;5696;50.928;6.960;2022-11-18T13:35:23;13.80;99.90
11280;DHT22;5696;50.928;6.960;2022-11-18T13:37:53;13.80;99.90
11280;DHT22;5696;50.928;6.960;2022-11-18T13:40:27;13.90;99.90
11280;DHT22;5696;50.928;6.960;2022-11-18T13:42:53;13.90;99.90
11280;DHT22;5696;50.928;6.960;2022-11-18T13:45:24;13.90;99.90
11280;DHT22;5696;50.928;6.960;2022-11-18T13:48:06;13.90;99.90
11280;DHT22;5696;50.928;6.960;2022-11-18T13:53:36;13.90;99.90
11280;DHT22;5696;50.928;6.960;2022-11-18T13:56:13;13.90;99.90
11280;DHT22;5696;50.928;6.960;2022-11-18T13:58:59;13.90;99.90
11280;DHT22;5696;50.928;6.960;2022-11-18T14:01:33;13.90;99.90
11280;DHT22;5696;50.928;6.960;2022-11-18T14:04:04;13.90;99.90
11280;DHT22;5696;50.928;6.960;2022-11-18T14:09:17;14.00;99.90
11280;DHT22;5696;50.928;6.960;2022-11-18T14:19:49;13.80;99.90
11280;DHT22;5696;50.928;6.960;2022-11-18T14:22:20;13.70;99.90
11280;DHT22;5696;50.928;6.960;2022-11-18T14:25:13;13.70;99.90
11280;DHT22;5696;50.928;6.960;2022-11-18T14:27:45;13.70;99.90
11280;DHT22;5696;50.928;6.960;2022-11-18T14:30:54;13.60;99.90
11280;DHT22;5696;50.928;6.960;2022-11-18T14:37:12;13.40;99.90
11280;DHT22;5696;50.928;6.960;2022-11-18T14:39:38;13.30;99.90
11280;DHT22;5696;50.928;6.960;2022-11-18T14:42:04;13.20;99.90
11280;DHT22;5696;50.928;6.960;2022-11-18T14:44:31;13.10;99.90
11280;DHT22;5696;50.928;6.960;2022-11-18T14:46:59;13.00;99.90
11280;DHT22;5696;50.928;6.960;2022-11-18T14:49:27;12.80;99.90
11280;DHT22;5696;50.928;6.960;2022-11-18T14:51:55;12.70;99.90
11280;DHT22;5696;50.928;6.960;2022-11-18T14:54:23;12.70;99.90
11280;DHT22;5696;50.928;6.960;2022-11-18T14:56:54;12.50;99.90
11280;DHT22;5696;50.928;6.960;2022-11-18T14:59:20;12.40;99.90
11280;DHT22;5696;50.928;6.960;2022-11-18T15:01:48;12.30;99.90
11280;DHT22;5696;50.928;6.960;2022-11-18T15:04:14;12.20;99.90
11280;DHT22;5696;50.928;6.960;2022-11-18T15:06:43;12.20;99.90
11280;DHT22;5696;50.928;6.960;2022-11-18T15:09:10;12.10;99.90
11280;DHT22;5696;50.928;6.960;2022-11-18T15:11:36;12.10;99.90
11280;DHT22;5696;50.928;6.960;2022-11-18T15:14:02;12.00;99.90
11280;DHT22;5696;50.928;6.960;2022-11-18T15:16:29;12.00;99.90
11280;DHT22;5696;50.928;6.960;2022-11-18T15:18:57;11.90;99.90
11280;DHT22;5696;50.928;6.960;2022-11-18T15:21:24;11.80;99.90
11280;DHT22;5696;50.928;6.960;2022-11-18T15:23:50;11.80;99.90
11280;DHT22;5696;50.928;6.960;2022-11-18T15:26:20;11.70;99.90
11280;DHT22;5696;50.928;6.960;2022-11-18T15:28:47;11.70;99.90
11280;DHT22;5696;50.928;6.960;2022-11-18T15:31:13;11.60;99.90
11280;DHT22;5696;50.928;6.960;2022-11-18T15:33:39;11.50;99.90
11280;DHT22;5696;50.928;6.960;2022-11-18T15:36:13;11.60;99.90
11280;DHT22;5696;50.928;6.960;2022-11-18T15:38:39;11.50;99.90
11280;DHT22;5696;50.928;6.960;2022-11-18T15:41:06;11.50;99.90
11280;DHT22;5696;50.928;6.960;2022-11-18T15:43:31;11.50;99.90
11280;DHT22;5696;50.928;6.960;2022-11-18T15:45:57;11.60;99.90
11280;DHT22;5696;50.928;6.960;2022-11-18T15:48:23;11.70;99.90
11280;DHT22;5696;50.928;6.960;2022-11-18T15:50:49;11.70;99.90
11280;DHT22;5696;50.928;6.960;2022-11-18T15:53:14;11.70;99.90
11280;DHT22;5696;50.928;6.960;2022-11-18T15:55:40;11.70;99.90
11280;DHT22;5696;50.928;6.960;2022-11-18T15:58:06;11.60;99.90
11280;DHT22;5696;50.928;6.960;2022-11-18T16:00:31;11.60;99.90
11280;DHT22;5696;50.928;6.960;2022-11-18T16:02:57;11.60;99.90
11280;DHT22;5696;50.928;6.960;2022-11-18T16:05:22;11.60;99.90
11280;DHT22;5696;50.928;6.960;2022-11-18T16:07:48;11.50;99.90
11280;DHT22;5696;50.928;6.960;2022-11-18T16:10:14;11.50;99.90
11280;DHT22;5696;50.928;6.960;2022-11-18T16:12:58;11.40;99.90
11280;DHT22;5696;50.928;6.960;2022-11-18T16:15:24;11.30;99.90
11280;DHT22;5696;50.928;6.960;2022-11-18T16:18:11;11.20;99.90
11280;DHT22;5696;50.928;6.960;2022-11-18T16:20:36;11.20;99.90
11280;DHT22;5696;50.928;6.960;2022-11-18T16:23:02;11.30;99.90
11280;DHT22;5696;50.928;6.960;2022-11-18T16:25:28;11.20;99.90
11280;DHT22;5696;50.928;6.960;2022-11-18T16:27:54;11.20;99.90
11280;DHT22;5696;50.928;6.960;2022-11-18T16:30:20;11.20;99.90
11280;DHT22;5696;50.928;6.960;2022-11-18T16:33:04;11.10;99.90
11280;DHT22;5696;50.928;6.960;2022-11-18T16:35:30;11.20;99.90
11280;DHT22;5696;50.928;6.960;2022-11-18T16:37:56;11.20;99.90
11280;DHT22;5696;50.928;6.960;2022-11-18T16:40:22;11.30;99.90
11280;DHT22;5696;50.928;6.960;2022-11-18T16:42:48;11.30;99.90
11280;DHT22;5696;50.928;6.960;2022-11-18T16:45:14;11.40;99.90
11280;DHT22;5696;50.928;6.960;2022-11-18T16:47:40;11.40;99.90
11280;DHT22;5696;50.928;6.960;2022-11-18T16:50:06;11.40;99.90
11280;DHT22;5696;50.928;6.960;2022-11-18T16:52:32;11.40;99.90
11280;DHT22;5696;50.928;6.960;2022-11-18T16:54:57;11.40;99.90
11280;DHT22;5696;50.928;6.960;2022-11-18T16:57:23;11.30;99.90
11280;DHT22;5696;50.928;6.960;2022-11-18T16:59:49;11.30;99.90
11280;DHT22;5696;50.928;6.960;2022-11-18T17:02:15;11.20;99.90
11280;DHT22;5696;50.928;6.960;2022-11-18T17:04:41;11.20;99.90
11280;DHT22;5696;50.928;6.960;2022-11-18T17:07:07;11.20;99.90
11280;DHT22;5696;50.928;6.960;2022-11-18T17:09:32;11.30;99.90
11280;DHT22;5696;50.928;6.960;2022-11-18T17:11:58;11.30;99.90
11280;DHT22;5696;50.928;6.960;2022-11-18T17:14:24;11.40;99.90
11280;DHT22;5696;50.928;6.960;2022-11-18T17:16:50;11.40;99.90
11280;DHT22;5696;50.928;6.960;2022-11-18T17:19:19;11.40;99.90
11280;DHT22;5696;50.928;6.960;2022-11-18T17:21:45;11.40;99.90
11280;DHT22;5696;50.928;6.960;2022-11-18T17:24:17;11.40;99.90
11280;DHT22;5696;50.928;6.960;2022-11-18T17:26:43;11.30;99.90
11280;DHT22;5696;50.928;6.960;2022-11-18T17:29:10;11.30;99.90
11280;DHT22;5696;50.928;6.960;2022-11-18T17:31:36;11.20;99.90
11280;DHT22;5696;50.928;6.960;2022-11-18T17:34:01;11.20;99.90
11280;DHT22;5696;50.928;6.960;2022-11-18T17:36:28;11.10;99.90
11280;DHT22;5696;50.928;6.960;2022-11-18T17:38:55;11.10;99.90
11280;DHT22;5696;50.928;6.960;2022-11-18T17:41:23;11.00;99.90
11280;DHT22;5696;50.928;6.960;2022-11-18T17:44:08;11.00;99.90
11280;DHT22;5696;50.928;6.960;2022-11-18T17:46:35;11.00;99.90
11280;DHT22;5696;50.928;6.960;2022-11-18T17:49:03;10.90;99.90
11280;DHT22;5696;50.928;6.960;2022-11-18T17:51:30;10.80;99.90
11280;DHT22;5696;50.928;6.960;2022-11-18T17:53:56;10.80;99.90
11280;DHT22;5696;50.928;6.960;2022-11-18T17:56:22;10.70;99.90
11280;DHT22;5696;50.928;6.960;2022-11-18T17:58:49;10.70;99.90
11280;DHT22;5696;50.928;6.960;2022-11-18T18:01:16;10.80;99.90
11280;DHT22;5696;50.928;6.960;2022-11-18T18:03:42;10.80;99.90
11280;DHT22;5696;50.928;6.960;2022-11-18T18:06:12;10.80;99.90
11280;DHT22;5696;50.928;6.960;2022-11-18T18:08:38;10.80;99.90
11280;DHT22;5696;50.928;6.960;2022-11-18T18:13:30;10.90;99.90
11280;DHT22;5696;50.928;6.960;2022-11-18T18:16:15;11.00;99.90
11280;DHT22;5696;50.928;6.960;2022-11-18T18:18:40;11.00;99.90
11280;DHT22;5696;50.928;6.960;2022-11-18T18:21:06;11.00;99.90
11280;DHT22;5696;50.928;6.960;2022-11-18T18:23:36;10.90;99.90
11280;DHT22;5696;50.928;6.960;2022-11-18T18:26:05;10.90;99.90
11280;DHT22;5696;50.928;6.960;2022-11-18T18:28:32;10.90;99.90
11280;DHT22;5696;50.928;6.960;2022-11-18T18:31:09;10.90;99.90
11280;DHT22;5696;50.928;6.960;2022-11-18T18:33:35;10.90;99.90
11280;DHT22;5696;50.928;6.960;2022-11-18T18:36:03;10.90;99.90
11280;DHT22;5696;50.928;6.960;2022-11-18T18:38:34;11.00;99.90
11280;DHT22;5696;50.928;6.960;2022-11-18T18:41:01;11.00;99.90
11280;DHT22;5696;50.928;6.960;2022-11-18T18:43:27;10.90;99.90
11280;DHT22;5696;50.928;6.960;2022-11-18T18:45:58;10.90;99.90
11280;DHT22;5696;50.928;6.960;2022-11-18T18:48:42;10.90;99.90
11280;DHT22;5696;50.928;6.960;2022-11-18T18:51:09;10.80;99.90
11280;DHT22;5696;50.928;6.960;2022-11-18T18:53:35;10.80;99.90
11280;DHT22;5696;50.928;6.960;2022-11-18T18:56:00;10.80;99.90
11280;DHT22;5696;50.928;6.960;2022-11-18T18:58:26;10.80;99.90
11280;DHT22;5696;50.928;6.960;2022-11-18T19:00:52;10.70;99.90
11280;DHT22;5696;50.928;6.960;2022-11-18T19:03:18;10.70;99.90
11280;DHT22;5696;50.928;6.960;2022-11-18T19:05:43;10.60;99.90
11280;DHT22;5696;50.928;6.960;2022-11-18T19:08:09;10.50;99.90
11280;DHT22;5696;50.928;6.960;2022-11-18T19:10:38;10.50;99.90
11280;DHT22;5696;50.928;6.960;2022-11-18T19:13:04;10.40;99.90
11280;DHT22;5696;50.928;6.960;2022-11-18T19:15:30;10.30;99.90
11280;DHT22;5696;50.928;6.960;2022-11-18T19:17:55;10.30;99.90
11280;DHT22;5696;50.928;6.960;2022-11-18T19:20:21;10.20;99.90
11280;DHT22;5696;50.928;6.960;2022-11-18T19:23:02;10.30;99.90
11280;DHT22;5696;50.928;6.960;2022-11-18T19:25:32;10.30;99.90
11280;DHT22;5696;50.928;6.960;2022-11-18T19:27:58;10.30;99.90
11280;DHT22;5696;50.928;6.960;2022-11-18T19:30:24;10.30;99.90
11280;DHT22;5696;50.928;6.960;2022-11-18T19:32:50;10.30;99.90
11280;DHT22;5696;50.928;6.960;2022-11-18T19:35:16;10.20;99.90
11280;DHT22;5696;50.928;6.960;2022-11-18T19:37:42;10.30;99.90
11280;DHT22;5696;50.928;6.960;2022-11-18T19:40:10;10.20;99.90
11280;DHT22;5696;50.928;6.960;2022-11-18T19:42:35;10.30;99.90
11280;DHT22;5696;50.928;6.960;2022-11-18T19:45:12;10.20;99.90
11280;DHT22;5696;50.928;6.960;2022-11-18T19:47:38;10.20;99.90
11280;DHT22;5696;50.928;6.960;2022-11-18T19:50:05;10.30;99.90
11280;DHT22;5696;50.928;6.960;2022-11-18T19:52:32;10.30;99.90
11280;DHT22;5696;50.928;6.960;2022-11-18T19:55:01;10.30;99.90
11280;DHT22;5696;50.928;6.960;2022-11-18T19:57:26;10.30;99.90
11280;DHT22;5696;50.928;6.960;2022-11-18T19:59:53;10.20;99.90
11280;DHT22;5696;50.928;6.960;2022-11-18T20:02:18;10.20;99.90
11280;DHT22;5696;50.928;6.960;2022-11-18T20:04:44;10.20;99.90
11280;DHT22;5696;50.928;6.960;2022-11-18T20:07:29;10.20;99.90
11280;DHT22;5696;50.928;6.960;2022-11-18T20:09:55;10.20;99.90
11280;DHT22;5696;50.928;6.960;2022-11-18T20:12:21;10.30;99.90
11280;DHT22;5696;50.928;6.960;2022-11-18T20:14:46;10.40;99.90
11280;DHT22;5696;50.928;6.960;2022-11-18T20:17:12;10.40;99.90
11280;DHT22;5696;50.928;6.960;2022-11-18T20:19:37;10.40;99.90
11280;DHT22;5696;50.928;6.960;2022-11-18T20:22:03;10.40;99.90
11280;DHT22;5696;50.928;6.960;2022-11-18T20:24:28;10.40;99.90
11280;DHT22;5696;50.928;6.960;2022-11-18T20:26:54;10.40;99.90
11280;DHT22;5696;50.928;6.960;2022-11-18T20:29:20;10.40;99.90
11280;DHT22;5696;50.928;6.960;2022-11-18T20:31:45;10.40;99.90
11280;DHT22;5696;50.928;6.960;2022-11-18T20:34:13;10.40;99.90
11280;DHT22;5696;50.928;6.960;2022-11-18T20:36:39;10.30;99.90
11280;DHT22;5696;50.928;6.960;2022-11-18T20:39:09;10.30;99.90
11280;DHT22;5696;50.928;6.960;2022-11-18T20:41:35;10.30;99.90
11280;DHT22;5696;50.928;6.960;2022-11-18T20:44:01;10.40;99.90
11280;DHT22;5696;50.928;6.960;2022-11-18T20:46:26;10.40;99.90
11280;DHT22;5696;50.928;6.960;2022-11-18T20:48:52;10.30;99.90
11280;DHT22;5696;50.928;6.960;2022-11-18T20:51:20;10.30;99.90
11280;DHT22;5696;50.928;6.960;2022-11-18T20:53:48;10.30;99.90
11280;DHT22;5696;50.928;6.960;2022-11-18T20:56:22;10.20;99.90
11280;DHT22;5696;50.928;6.960;2022-11-18T20:58:48;10.20;99.90
11280;DHT22;5696;50.928;6.960;2022-11-18T21:01:22;10.20;99.90
11280;DHT22;5696;50.928;6.960;2022-11-18T21:03:51;10.20;99.90
11280;DHT22;5696;50.928;6.960;2022-11-18T21:06:21;10.20;99.90
11280;DHT22;5696;50.928;6.960;2022-11-18T21:08:47;10.20;99.90
11280;DHT22;5696;50.928;6.960;2022-11-18T21:11:13;10.20;99.90
11280;DHT22;5696;50.928;6.960;2022-11-18T21:13:40;10.30;99.90
11280;DHT22;5696;50.928;6.960;2022-11-18T21:16:25;10.30;99.90
11280;DHT22;5696;50.928;6.960;2022-11-18T21:18:51;10.40;99.90
11280;DHT22;5696;50.928;6.960;2022-11-18T21:21:17;10.30;99.90
11280;DHT22;5696;50.928;6.960;2022-11-18T21:24:02;10.30;99.90
11280;DHT22;5696;50.928;6.960;2022-11-18T21:26:30;10.20;99.90
11280;DHT22;5696;50.928;6.960;2022-11-18T21:28:58;10.20;99.90
11280;DHT22;5696;50.928;6.960;2022-11-18T21:31:25;10.20;99.90
11280;DHT22;5696;50.928;6.960;2022-11-18T21:33:51;10.10;99.90
11280;DHT22;5696;50.928;6.960;2022-11-18T21:36:20;10.10;99.90
11280;DHT22;5696;50.928;6.960;2022-11-18T21:38:46;10.10;99.90
11280;DHT22;5696;50.928;6.960;2022-11-18T21:41:12;10.20;99.90
11280;DHT22;5696;50.928;6.960;2022-11-18T21:43:39;10.20;99.90
11280;DHT22;5696;50.928;6.960;2022-11-18T21:46:07;10.20;99.90
11280;DHT22;5696;50.928;6.960;2022-11-18T21:48:33;10.20;99.90
11280;DHT22;5696;50.928;6.960;2022-11-18T21:51:04;10.20;99.90
11280;DHT22;5696;50.928;6.960;2022-11-18T21:53:30;10.10;99.90
11280;DHT22;5696;50.928;6.960;2022-11-18T21:56:04;10.00;99.90
11280;DHT22;5696;50.928;6.960;2022-11-18T21:58:30;10.00;99.90
11280;DHT22;5696;50.928;6.960;2022-11-18T22:03:36;10.10;99.90
11280;DHT22;5696;50.928;6.960;2022-11-18T22:06:02;10.00;99.90
11280;DHT22;5696;50.928;6.960;2022-11-18T22:08:28;10.00;99.90
11280;DHT22;5696;50.928;6.960;2022-11-18T22:10:54;10.00;99.90
11280;DHT22;5696;50.928;6.960;2022-11-18T22:13:21;10.00;99.90
11280;DHT22;5696;50.928;6.960;2022-11-18T22:15:46;10.00;99.90
11280;DHT22;5696;50.928;6.960;2022-11-18T22:18:12;10.00;99.90
11280;DHT22;5696;50.928;6.960;2022-11-18T22:20:38;10.00;99.90
11280;DHT22;5696;50.928;6.960;2022-11-18T22:23:03;10.00;99.90
11280;DHT22;5696;50.928;6.960;2022-11-18T22:25:29;9.90;99.90
11280;DHT22;5696;50.928;6.960;2022-11-18T22:27:56;9.80;99.90
11280;DHT22;5696;50.928;6.960;2022-11-18T22:30:21;9.80;99.90
11280;DHT22;5696;50.928;6.960;2022-11-18T22:32:47;9.80;99.90
11280;DHT22;5696;50.928;6.960;2022-11-18T22:35:12;9.80;99.90
11280;DHT22;5696;50.928;6.960;2022-11-18T22:37:38;9.80;99.90
11280;DHT22;5696;50.928;6.960;2022-11-18T22:40:04;9.80;99.90
11280;DHT22;5696;50.928;6.960;2022-11-18T22:42:30;9.80;99.90
11280;DHT22;5696;50.928;6.960;2022-11-18T22:45:14;9.80;99.90
11280;DHT22;5696;50.928;6.960;2022-11-18T22:47:40;9.80;99.90
11280;DHT22;5696;50.928;6.960;2022-11-18T22:50:10;9.80;99.90
11280;DHT22;5696;50.928;6.960;2022-11-18T22:52:36;9.80;99.90
11280;DHT22;5696;50.928;6.960;2022-11-18T22:55:18;9.80;99.90
11280;DHT22;5696;50.928;6.960;2022-11-18T22:57:44;9.80;99.90
11280;DHT22;5696;50.928;6.960;2022-11-18T23:00:10;9.80;99.90
11280;DHT22;5696;50.928;6.960;2022-11-18T23:02:36;9.80;99.90
11280;DHT22;5696;50.928;6.960;2022-11-18T23:05:02;9.80;99.90
11280;DHT22;5696;50.928;6.960;2022-11-18T23:07:27;9.70;99.90
11280;DHT22;5696;50.928;6.960;2022-11-18T23:09:53;9.70;99.90
11280;DHT22;5696;50.928;6.960;2022-11-18T23:12:41;9.80;99.90
11280;DHT22;5696;50.928;6.960;2022-11-18T23:15:25;9.80;99.90
11280;DHT22;5696;50.928;6.960;2022-11-18T23:17:53;9.80;99.90
11280;DHT22;5696;50.928;6.960;2022-11-18T23:20:30;9.70;99.90
11280;DHT22;5696;50.928;6.960;2022-11-18T23:22:56;9.70;99.90
11280;DHT22;5696;50.928;6.960;2022-11-18T23:25:21;9.70;99.90
11280;DHT22;5696;50.928;6.960;2022-11-18T23:27:47;9.70;99.90
11280;DHT22;5696;50.928;6.960;2022-11-18T23:30:13;9.60;99.90
11280;DHT22;5696;50.928;6.960;2022-11-18T23:32:38;9.60;99.90